createdAt,value
2023-08-15T00:03:41.159Z,28.25
2023-08-15T00:06:10.088Z,28.21
2023-08-15T00:08:38.303Z,28.20
2023-08-15T00:11:07.507Z,28.20
2023-08-15T00:13:35.715Z,28.20
2023-08-15T00:16:04.171Z,28.20
2023-08-15T00:18:32.575Z,28.19
2023-08-15T00:21:01.079Z,28.21
2023-08-15T00:23:29.583Z,28.22
2023-08-15T00:25:58.894Z,28.20
2023-08-15T00:28:27.241Z,28.17
2023-08-15T00:30:56.130Z,28.16
2023-08-15T00:33:24.699Z,28.15
2023-08-15T00:35:53.046Z,28.14
2023-08-15T00:38:21.666Z,28.11
2023-08-15T00:40:50.368Z,28.11
2023-08-15T00:43:18.638Z,28.10
2023-08-15T00:45:47.673Z,28.09
2023-08-15T00:48:17.532Z,28.09
2023-08-15T00:50:49.050Z,28.08
2023-08-15T00:53:20.235Z,28.06
2023-08-15T00:55:48.851Z,28.04
2023-08-15T00:58:17.876Z,28.01
2023-08-15T01:00:47.036Z,27.98
2023-08-15T01:03:15.410Z,27.96
2023-08-15T01:05:46.698Z,27.95
2023-08-15T01:08:15.175Z,27.93
2023-08-15T01:10:44.504Z,27.92
2023-08-15T01:13:29.509Z,27.91
2023-08-15T01:15:58.244Z,27.89
2023-08-15T01:18:32.769Z,27.88
2023-08-15T01:21:03.036Z,27.85
2023-08-15T01:23:37.583Z,27.84
2023-08-15T01:26:06.049Z,27.82
2023-08-15T01:28:34.341Z,27.78
2023-08-15T01:31:41.452Z,27.76
2023-08-15T01:34:22.891Z,27.73
2023-08-15T01:37:01.905Z,27.71
2023-08-15T01:39:32.382Z,27.69
2023-08-15T01:42:03.740Z,27.66
2023-08-15T01:44:33.330Z,27.62
2023-08-15T01:47:02.288Z,27.59
2023-08-15T01:49:32.339Z,27.58
2023-08-15T01:52:01.356Z,27.54
2023-08-15T01:54:30.440Z,27.50
2023-08-15T01:56:58.923Z,27.48
2023-08-15T01:59:27.322Z,27.48
2023-08-15T02:01:56.249Z,27.47
2023-08-15T02:04:24.967Z,27.47
2023-08-15T02:06:53.688Z,27.45
2023-08-15T02:09:22.036Z,27.41
2023-08-15T02:11:50.670Z,27.38
2023-08-15T02:14:19.092Z,27.35
2023-08-15T02:16:47.412Z,27.31
2023-08-15T02:19:15.920Z,27.27
2023-08-15T02:21:44.752Z,27.24
2023-08-15T02:24:13.124Z,27.20
2023-08-15T02:26:41.502Z,27.15
2023-08-15T02:29:09.959Z,27.11
2023-08-15T02:31:45.419Z,27.08
2023-08-15T02:34:13.821Z,27.08
2023-08-15T02:36:42.617Z,27.08
2023-08-15T02:39:11.079Z,27.08
2023-08-15T02:41:39.404Z,27.06
2023-08-15T02:44:07.703Z,27.06
2023-08-15T02:46:36.221Z,27.06
2023-08-15T02:49:06.505Z,27.05
2023-08-15T02:51:34.908Z,27.04
2023-08-15T02:54:03.796Z,27.03
2023-08-15T02:56:32.126Z,27.01
2023-08-15T02:59:00.508Z,26.99
2023-08-15T03:01:29.137Z,26.98
2023-08-15T03:03:58.410Z,26.96
2023-08-15T03:06:26.530Z,26.93
2023-08-15T03:08:55.082Z,26.87
2023-08-15T03:11:23.613Z,26.83
2023-08-15T03:13:51.934Z,26.77
2023-08-15T03:16:20.330Z,26.73
2023-08-15T03:18:49.330Z,26.71
2023-08-15T03:21:17.756Z,26.68
2023-08-15T03:23:46.274Z,26.65
2023-08-15T03:26:14.801Z,26.61
2023-08-15T03:28:43.149Z,26.58
2023-08-15T03:31:11.984Z,26.55
2023-08-15T03:33:40.516Z,26.52
2023-08-15T03:36:09.096Z,26.47
2023-08-15T03:38:37.733Z,26.43
2023-08-15T03:41:07.780Z,26.42
2023-08-15T03:43:37.173Z,26.39
2023-08-15T03:46:06.351Z,26.37
2023-08-15T03:48:35.533Z,26.36
2023-08-15T03:51:06.890Z,26.35
2023-08-15T03:53:37.568Z,26.34
2023-08-15T03:56:06.051Z,26.32
2023-08-15T03:58:34.541Z,26.30
2023-08-15T04:01:03.667Z,26.28
2023-08-15T04:03:32.228Z,26.27
2023-08-15T04:06:00.657Z,26.27
2023-08-15T04:08:29.281Z,26.26
2023-08-15T04:10:57.842Z,26.25
2023-08-15T04:13:26.118Z,26.26
2023-08-15T04:15:55.165Z,26.26
2023-08-15T04:18:23.533Z,26.25
2023-08-15T04:20:51.732Z,26.25
2023-08-15T04:23:20.132Z,26.25
2023-08-15T04:25:48.734Z,26.24
2023-08-15T04:28:17.045Z,26.23
2023-08-15T04:30:45.459Z,26.22
2023-08-15T04:33:14.424Z,26.21
2023-08-15T04:35:42.619Z,26.18
2023-08-15T04:38:11.037Z,26.16
2023-08-15T04:40:40.068Z,26.13
2023-08-15T04:43:10.088Z,26.09
2023-08-15T04:45:38.602Z,26.05
2023-08-15T04:48:08.555Z,26.03
2023-08-15T04:50:37.981Z,26.00
2023-08-15T04:53:07.496Z,25.97
2023-08-15T04:55:36.485Z,25.95
2023-08-15T04:58:05.183Z,25.92
2023-08-15T05:00:35.525Z,25.89
2023-08-15T05:03:04.821Z,25.87
2023-08-15T05:05:34.297Z,25.86
2023-08-15T05:08:02.824Z,25.83
2023-08-15T05:10:32.316Z,25.80
2023-08-15T05:13:00.926Z,25.78
2023-08-15T05:15:29.306Z,25.77
2023-08-15T05:17:58.513Z,25.76
2023-08-15T05:20:27.098Z,25.76
2023-08-15T05:22:55.415Z,25.74
2023-08-15T05:25:23.884Z,25.71
2023-08-15T05:27:52.282Z,25.69
2023-08-15T05:30:20.630Z,25.69
2023-08-15T05:32:49.063Z,25.67
2023-08-15T05:35:17.872Z,25.69
2023-08-15T05:37:46.125Z,25.69
2023-08-15T05:40:14.854Z,25.69
2023-08-15T05:42:43.342Z,25.69
2023-08-15T05:45:12.546Z,25.70
2023-08-15T05:47:41.007Z,25.70
2023-08-15T05:50:09.915Z,25.70
2023-08-15T05:52:38.292Z,25.71
2023-08-15T05:55:07.110Z,25.72
2023-08-15T05:57:35.547Z,25.74
2023-08-15T06:00:04.303Z,25.74
2023-08-15T06:02:33.155Z,25.75
2023-08-15T06:05:02.982Z,25.77
2023-08-15T06:07:31.373Z,25.79
2023-08-15T06:10:00.939Z,25.82
2023-08-15T06:12:30.074Z,25.85
2023-08-15T06:14:58.726Z,25.89
2023-08-15T06:17:27.602Z,25.92
2023-08-15T06:19:56.610Z,25.95
2023-08-15T06:22:25.598Z,25.99
2023-08-15T06:24:54.706Z,26.02
2023-08-15T06:27:23.500Z,26.05
2023-08-15T06:29:52.052Z,26.09
2023-08-15T06:32:29.476Z,26.12
2023-08-15T06:34:59.398Z,26.16
2023-08-15T06:37:27.886Z,26.21
2023-08-15T06:39:56.191Z,26.26
2023-08-15T06:42:24.633Z,26.32
2023-08-15T06:45:06.816Z,26.36
2023-08-15T06:47:35.428Z,26.43
2023-08-15T06:50:03.858Z,26.49
2023-08-15T06:52:32.379Z,26.55
2023-08-15T06:55:07.985Z,26.61
2023-08-15T06:57:38.097Z,26.68
2023-08-15T07:00:07.286Z,26.75
2023-08-15T07:02:35.815Z,26.84
2023-08-15T07:05:04.887Z,26.92
2023-08-15T07:07:33.494Z,27.00
2023-08-15T07:10:02.397Z,27.09
2023-08-15T07:12:31.367Z,27.18
2023-08-15T07:14:59.843Z,27.29
2023-08-15T07:17:28.038Z,27.40
2023-08-15T07:19:57.516Z,27.50
2023-08-15T07:22:26.288Z,27.63
2023-08-15T07:24:55.052Z,27.74
2023-08-15T07:27:23.374Z,27.86
2023-08-15T07:29:51.847Z,27.97
2023-08-15T07:32:21.656Z,28.06
2023-08-15T07:34:50.486Z,28.14
2023-08-15T07:37:18.766Z,28.24
2023-08-15T07:39:47.008Z,28.34
2023-08-15T07:42:15.414Z,28.41
2023-08-15T07:44:44.405Z,28.47
2023-08-15T07:47:12.916Z,28.50
2023-08-15T07:49:41.741Z,28.55
2023-08-15T07:52:10.118Z,28.62
2023-08-15T07:54:38.701Z,28.75
2023-08-15T07:57:07.370Z,28.87
2023-08-15T07:59:36.126Z,29.01
2023-08-15T08:02:05.176Z,29.14
2023-08-15T08:04:33.603Z,29.28
2023-08-15T08:07:02.064Z,29.41
2023-08-15T08:09:30.596Z,29.53
2023-08-15T08:11:59.050Z,29.64
2023-08-15T08:14:27.439Z,29.73
2023-08-15T08:16:55.755Z,29.82
2023-08-15T08:19:24.200Z,29.91
2023-08-15T08:21:52.536Z,29.93
2023-08-15T08:24:20.901Z,30.00
2023-08-15T08:26:49.823Z,30.05
2023-08-15T08:29:18.317Z,30.14
2023-08-15T08:31:46.708Z,30.23
2023-08-15T08:34:15.848Z,30.30
2023-08-15T08:36:44.765Z,30.37
2023-08-15T08:39:25.569Z,30.47
2023-08-15T08:42:01.511Z,30.56
2023-08-15T08:44:32.969Z,30.67
2023-08-15T08:47:01.505Z,30.77
2023-08-15T08:49:30.637Z,30.85
2023-08-15T08:52:01.055Z,30.93
2023-08-15T08:54:46.923Z,31.00
2023-08-15T08:57:20.650Z,31.09
2023-08-15T08:59:50.267Z,31.12
2023-08-15T09:02:23.096Z,31.17
2023-08-15T09:04:53.955Z,31.23
2023-08-15T09:07:22.437Z,31.30
2023-08-15T09:09:51.188Z,31.38
2023-08-15T09:12:47.129Z,31.44
2023-08-15T09:15:15.568Z,31.54
2023-08-15T09:17:45.197Z,31.61
2023-08-15T09:20:19.254Z,31.67
2023-08-15T09:22:48.370Z,31.74
2023-08-15T09:25:18.212Z,31.78
2023-08-15T09:27:47.653Z,31.82
2023-08-15T09:30:17.646Z,31.83
2023-08-15T09:32:47.223Z,31.83
2023-08-15T09:35:18.848Z,31.86
2023-08-15T09:37:49.843Z,31.94
2023-08-15T09:40:26.575Z,32.05
2023-08-15T09:42:56.008Z,32.16
2023-08-15T09:45:25.975Z,32.13
2023-08-15T09:47:54.682Z,32.13
2023-08-15T09:50:24.473Z,32.23
2023-08-15T09:52:54.413Z,32.32
2023-08-15T09:55:22.797Z,32.39
2023-08-15T09:57:52.081Z,32.45
2023-08-15T10:00:20.768Z,32.54
2023-08-15T10:02:56.865Z,32.63
2023-08-15T10:05:26.644Z,32.67
2023-08-15T10:07:58.771Z,32.67
2023-08-15T10:10:29.687Z,32.68
2023-08-15T10:12:59.844Z,32.74
2023-08-15T10:15:30.230Z,32.78
2023-08-15T10:17:59.747Z,32.87
2023-08-15T10:20:36.382Z,32.98
2023-08-15T10:23:06.075Z,33.08
2023-08-15T10:25:37.463Z,33.15
2023-08-15T10:28:12.602Z,33.20
2023-08-15T10:30:51.834Z,33.25
2023-08-15T10:33:23.888Z,33.23
2023-08-15T10:36:18.501Z,33.27
2023-08-15T10:38:46.836Z,33.31
2023-08-15T10:41:17.177Z,33.34
2023-08-15T10:43:51.594Z,33.42
2023-08-15T10:46:27.127Z,33.48
2023-08-15T10:49:03.583Z,33.57
2023-08-15T10:51:36.159Z,33.63
2023-08-15T10:54:12.822Z,33.66
2023-08-15T10:56:43.090Z,33.65
2023-08-15T10:59:16.939Z,33.64
2023-08-15T11:01:47.890Z,33.68
2023-08-15T11:04:18.772Z,33.80
2023-08-15T11:06:51.764Z,33.87
2023-08-15T11:09:27.827Z,33.95
2023-08-15T11:12:05.150Z,34.03
2023-08-15T11:14:34.240Z,34.15
2023-08-15T11:17:02.634Z,34.22
2023-08-15T11:19:34.060Z,34.28
2023-08-15T11:22:02.332Z,34.32
2023-08-15T11:24:34.142Z,34.38
2023-08-15T11:27:02.620Z,34.46
2023-08-15T11:29:31.119Z,34.44
2023-08-15T11:32:02.535Z,34.45
2023-08-15T11:34:31.026Z,34.51
2023-08-15T11:36:59.260Z,34.55
2023-08-15T11:39:27.782Z,34.59
2023-08-15T11:41:56.573Z,34.65
2023-08-15T11:44:24.850Z,34.75
2023-08-15T11:46:55.310Z,34.78
2023-08-15T11:49:24.958Z,34.77
2023-08-15T11:52:03.390Z,34.76
2023-08-15T11:54:32.062Z,34.77
2023-08-15T11:57:00.683Z,34.83
2023-08-15T11:59:32.263Z,34.87
2023-08-15T12:02:02.591Z,34.93
2023-08-15T12:04:36.895Z,35.00
2023-08-15T12:07:10.837Z,35.06
2023-08-15T12:09:39.849Z,35.07
2023-08-15T12:12:08.310Z,35.06
2023-08-15T12:14:49.291Z,35.10
2023-08-15T12:17:19.388Z,35.10
2023-08-15T12:19:47.821Z,35.10
2023-08-15T12:22:16.247Z,35.11
2023-08-15T12:24:44.794Z,35.13
2023-08-15T12:27:13.804Z,35.09
2023-08-15T12:30:11.183Z,35.07
2023-08-15T12:32:31.176Z,35.11
2023-08-15T12:34:59.588Z,35.17
2023-08-15T12:37:27.905Z,35.23
2023-08-15T12:39:56.146Z,35.31
2023-08-15T12:42:25.160Z,35.41
2023-08-15T12:44:53.720Z,35.49
2023-08-15T12:47:22.074Z,35.54
2023-08-15T12:49:50.411Z,35.57
2023-08-15T12:52:18.686Z,35.62
2023-08-15T12:54:47.186Z,35.64
2023-08-15T12:57:15.673Z,35.63
2023-08-15T12:59:48.323Z,35.70
2023-08-15T13:02:18.321Z,35.78
2023-08-15T13:04:47.272Z,35.79
2023-08-15T13:07:17.133Z,35.75
2023-08-15T13:09:45.594Z,35.74
2023-08-15T13:12:15.579Z,35.77
2023-08-15T13:14:43.904Z,35.79
2023-08-15T13:17:12.580Z,35.80
2023-08-15T13:19:41.085Z,35.83
2023-08-15T13:22:09.545Z,35.88
2023-08-15T13:24:39.635Z,35.94
2023-08-15T13:27:08.413Z,36.02
2023-08-15T13:29:37.837Z,36.09
2023-08-15T13:32:07.380Z,36.20
2023-08-15T13:34:35.680Z,36.29
2023-08-15T13:37:04.296Z,36.37
2023-08-15T13:39:33.017Z,36.59
2023-08-15T13:42:01.501Z,36.76
2023-08-15T13:44:29.851Z,36.93
2023-08-15T13:46:58.289Z,37.19
2023-08-15T13:49:26.726Z,37.50
2023-08-15T13:51:55.208Z,37.80
2023-08-15T13:54:23.662Z,38.06
2023-08-15T13:56:54.267Z,38.31
2023-08-15T13:59:24.060Z,38.52
2023-08-15T14:01:52.319Z,38.69
2023-08-15T14:04:20.717Z,38.88
2023-08-15T14:06:49.614Z,39.15
2023-08-15T14:09:18.304Z,39.26
2023-08-15T14:11:46.660Z,39.40
2023-08-15T14:14:15.683Z,39.59
2023-08-15T14:16:44.015Z,39.69
2023-08-15T14:19:12.177Z,39.72
2023-08-15T14:21:40.708Z,39.85
2023-08-15T14:24:09.136Z,39.94
2023-08-15T14:26:37.703Z,39.99
2023-08-15T14:29:06.467Z,40.11
2023-08-15T14:31:34.858Z,40.24
2023-08-15T14:34:03.054Z,40.38
2023-08-15T14:36:31.695Z,40.45
2023-08-15T14:38:59.945Z,40.39
2023-08-15T14:41:28.504Z,40.36
2023-08-15T14:43:56.776Z,40.38
2023-08-15T14:46:25.184Z,40.39
2023-08-15T14:48:53.510Z,40.33
2023-08-15T14:51:22.109Z,40.24
2023-08-15T14:53:50.421Z,40.20
2023-08-15T14:56:19.284Z,40.00
2023-08-15T14:58:47.845Z,39.84
2023-08-15T15:01:16.301Z,39.74
2023-08-15T15:03:45.206Z,39.67
2023-08-15T15:06:13.828Z,39.65
2023-08-15T15:08:42.172Z,39.49
2023-08-15T15:11:10.511Z,39.27
2023-08-15T15:13:39.304Z,39.04
2023-08-15T15:16:07.717Z,38.74
2023-08-15T15:18:36.157Z,38.51
2023-08-15T15:21:06.105Z,38.25
2023-08-15T15:23:35.081Z,37.99
2023-08-15T15:26:03.654Z,37.74
2023-08-15T15:28:32.148Z,37.45
2023-08-15T15:31:00.430Z,37.25
2023-08-15T15:33:29.315Z,37.02
2023-08-15T15:35:57.860Z,36.81
2023-08-15T15:38:26.516Z,36.61
2023-08-15T15:40:55.013Z,36.39
2023-08-15T15:43:23.409Z,36.19
2023-08-15T15:45:52.523Z,35.98
2023-08-15T15:48:20.957Z,35.87
2023-08-15T15:50:51.481Z,35.80
2023-08-15T15:53:19.866Z,35.65
2023-08-15T15:55:48.299Z,35.51
2023-08-15T15:58:17.127Z,35.41
2023-08-15T16:00:46.250Z,35.31
2023-08-15T16:03:14.580Z,35.22
2023-08-15T16:05:43.688Z,35.12
2023-08-15T16:08:12.000Z,34.97
2023-08-15T16:10:40.306Z,34.85
2023-08-15T16:13:11.460Z,34.75
2023-08-15T16:15:40.568Z,34.63
2023-08-15T16:18:10.696Z,34.51
2023-08-15T16:20:40.040Z,34.37
2023-08-15T16:23:09.078Z,34.30
2023-08-15T16:25:38.768Z,34.26
2023-08-15T16:28:07.679Z,34.22
2023-08-15T16:30:39.385Z,34.12
2023-08-15T16:33:08.077Z,34.00
2023-08-15T16:35:37.777Z,33.94
2023-08-15T16:38:07.445Z,33.89
2023-08-15T16:40:38.348Z,33.78
2023-08-15T16:43:15.205Z,33.64
2023-08-15T16:45:45.868Z,33.52
2023-08-15T16:48:16.161Z,33.47
2023-08-15T16:50:45.263Z,33.36
2023-08-15T16:53:13.580Z,33.23
2023-08-15T16:55:41.891Z,33.14
2023-08-15T16:58:10.218Z,33.09
2023-08-15T17:00:38.571Z,33.10
2023-08-15T17:03:07.190Z,33.08
2023-08-15T17:05:36.179Z,32.96
2023-08-15T17:08:04.845Z,32.87
2023-08-15T17:10:33.953Z,32.79
2023-08-15T17:13:02.465Z,32.72
2023-08-15T17:15:32.341Z,32.65
2023-08-15T17:18:00.764Z,32.54
2023-08-15T17:20:29.090Z,32.42
2023-08-15T17:22:57.363Z,32.34
2023-08-15T17:25:26.167Z,32.30
2023-08-15T17:27:54.657Z,32.26
2023-08-15T17:30:23.361Z,32.23
2023-08-15T17:32:51.809Z,32.18
2023-08-15T17:35:20.200Z,32.08
2023-08-15T17:37:49.025Z,31.99
2023-08-15T17:40:17.986Z,31.93
2023-08-15T17:42:46.270Z,31.89
2023-08-15T17:45:14.623Z,31.81
2023-08-15T17:47:43.303Z,31.77
2023-08-15T17:50:12.461Z,31.70
2023-08-15T17:52:41.066Z,31.61
2023-08-15T17:55:10.994Z,31.52
2023-08-15T17:57:39.422Z,31.44
2023-08-15T18:00:08.633Z,31.37
2023-08-15T18:02:37.634Z,31.29
2023-08-15T18:05:06.154Z,31.20
2023-08-15T18:07:34.774Z,31.12
2023-08-15T18:10:05.044Z,31.02
2023-08-15T18:12:34.074Z,30.94
2023-08-15T18:15:02.592Z,30.88
2023-08-15T18:17:31.072Z,30.81
2023-08-15T18:19:59.542Z,30.74
2023-08-15T18:22:27.993Z,30.67
2023-08-15T18:24:56.635Z,30.60
2023-08-15T18:27:24.988Z,30.53
2023-08-15T18:29:53.305Z,30.44
2023-08-15T18:32:22.956Z,30.37
2023-08-15T18:34:52.220Z,30.32
2023-08-15T18:37:24.812Z,30.27
2023-08-15T18:39:53.422Z,30.23
2023-08-15T18:42:21.881Z,30.16
2023-08-15T18:44:51.179Z,30.10
2023-08-15T18:47:20.331Z,30.04
2023-08-15T18:49:48.855Z,30.00
2023-08-15T18:52:17.304Z,29.95
2023-08-15T18:54:45.743Z,29.92
2023-08-15T18:57:14.226Z,29.86
2023-08-15T18:59:42.786Z,29.79
2023-08-15T19:02:11.487Z,29.71
2023-08-15T19:04:40.084Z,29.66
2023-08-15T19:07:08.421Z,29.61
2023-08-15T19:09:36.534Z,29.55
2023-08-15T19:12:05.470Z,29.51
2023-08-15T19:14:34.206Z,29.47
2023-08-15T19:17:02.559Z,29.43
2023-08-15T19:19:31.015Z,29.39
2023-08-15T19:21:59.535Z,29.36
2023-08-15T19:24:27.873Z,29.32
2023-08-15T19:26:56.142Z,29.29
2023-08-15T19:29:24.688Z,29.25
2023-08-15T19:31:53.067Z,29.22
2023-08-15T19:34:21.377Z,29.18
2023-08-15T19:36:49.709Z,29.14
2023-08-15T19:39:17.912Z,29.10
2023-08-15T19:41:46.214Z,29.07
2023-08-15T19:44:14.605Z,29.02
2023-08-15T19:46:43.017Z,29.00
2023-08-15T19:49:11.560Z,28.99
2023-08-15T19:51:40.314Z,28.98
2023-08-15T19:54:08.697Z,28.97
2023-08-15T19:56:36.969Z,28.93
2023-08-15T19:59:05.804Z,28.91
2023-08-15T20:01:34.762Z,28.87
2023-08-15T20:04:03.925Z,28.81
2023-08-15T20:06:32.606Z,28.81
2023-08-15T20:09:01.023Z,28.81
2023-08-15T20:11:29.619Z,28.80
2023-08-15T20:13:58.295Z,28.80
2023-08-15T20:16:26.727Z,28.80
2023-08-15T20:18:55.765Z,28.78
2023-08-15T20:21:24.225Z,28.77
2023-08-15T20:23:52.864Z,28.77
2023-08-15T20:26:21.201Z,28.76
2023-08-15T20:28:49.885Z,28.75
2023-08-15T20:31:18.467Z,28.72
2023-08-15T20:33:46.799Z,28.70
2023-08-15T20:36:15.242Z,28.68
2023-08-15T20:38:43.794Z,28.66
2023-08-15T20:41:12.178Z,28.66
2023-08-15T20:43:40.794Z,28.66
2023-08-15T20:46:09.191Z,28.66
2023-08-15T20:48:38.084Z,28.67
2023-08-15T20:51:06.558Z,28.67
2023-08-15T20:53:35.123Z,28.66
2023-08-15T20:56:03.820Z,28.66
2023-08-15T20:58:33.175Z,28.65
2023-08-15T21:01:01.834Z,28.64
2023-08-15T21:03:31.362Z,28.63
2023-08-15T21:06:00.009Z,28.65
2023-08-15T21:08:28.689Z,28.67
2023-08-15T21:10:57.061Z,28.68
2023-08-15T21:13:26.744Z,28.68
2023-08-15T21:15:55.245Z,28.67
2023-08-15T21:18:23.556Z,28.67
2023-08-15T21:20:52.248Z,28.67
2023-08-15T21:23:20.497Z,28.67
2023-08-15T21:25:48.901Z,28.67
2023-08-15T21:28:17.485Z,28.68
2023-08-15T21:30:45.791Z,28.66
2023-08-15T21:33:14.380Z,28.67
2023-08-15T21:35:43.311Z,28.69
2023-08-15T21:38:11.660Z,28.70
2023-08-15T21:40:44.694Z,28.72
2023-08-15T21:43:13.247Z,28.73
2023-08-15T21:45:47.232Z,28.73
2023-08-15T21:48:15.590Z,28.71
2023-08-15T21:50:44.045Z,28.72
2023-08-15T21:53:12.423Z,28.73
2023-08-15T21:55:40.720Z,28.74
2023-08-15T21:58:08.960Z,28.73
2023-08-15T22:00:37.790Z,28.71
2023-08-15T22:03:06.337Z,28.69
2023-08-15T22:05:35.064Z,28.66
2023-08-15T22:08:03.781Z,28.66
2023-08-15T22:10:32.168Z,28.65
2023-08-15T22:13:01.213Z,28.64
2023-08-15T22:15:30.292Z,28.61
2023-08-15T22:18:13.223Z,28.59
2023-08-15T22:20:48.078Z,28.59
2023-08-15T22:23:16.630Z,28.58
2023-08-15T22:25:46.821Z,28.56
2023-08-15T22:28:16.779Z,28.55
2023-08-15T22:30:45.510Z,28.55
2023-08-15T22:33:14.024Z,28.51
2023-08-15T22:35:43.858Z,28.48
2023-08-15T22:38:12.751Z,28.47
2023-08-15T22:40:41.318Z,28.46
2023-08-15T22:43:10.713Z,28.45
2023-08-15T22:45:39.404Z,28.44
2023-08-15T22:48:07.850Z,28.43
2023-08-15T22:50:36.321Z,28.40
2023-08-15T22:53:05.188Z,28.38
2023-08-15T22:55:33.459Z,28.37
2023-08-15T22:58:01.845Z,28.37
2023-08-15T23:00:30.034Z,28.35
2023-08-15T23:02:58.374Z,28.32
2023-08-15T23:05:26.858Z,28.29
2023-08-15T23:07:55.180Z,28.27
2023-08-15T23:10:23.382Z,28.24
2023-08-15T23:12:52.000Z,28.21
2023-08-15T23:15:21.014Z,28.20
2023-08-15T23:17:49.451Z,28.18
2023-08-15T23:20:18.096Z,28.15
2023-08-15T23:22:48.355Z,28.14
2023-08-15T23:25:16.793Z,28.15
2023-08-15T23:27:45.418Z,28.16
2023-08-15T23:30:15.485Z,28.14
2023-08-15T23:32:43.820Z,28.13
2023-08-15T23:35:15.183Z,28.10
2023-08-15T23:37:45.318Z,28.09
2023-08-15T23:40:14.745Z,28.09
2023-08-15T23:42:43.137Z,28.09
2023-08-15T23:45:11.849Z,28.10
2023-08-15T23:47:41.488Z,28.09
2023-08-15T23:50:10.793Z,28.09
2023-08-15T23:52:39.032Z,28.08
2023-08-15T23:55:07.745Z,28.08
2023-08-15T23:57:36.069Z,28.08
